Time;durP1;ratioP1;P1;durP2;ratioP2;P2;SDS_P1;SDS_P2;PMS_P1;PMS_P2;Temp;Humidity;BMP_temperature;BMP_pressure;BME280_temperature;BME280_humidity;BME280_pressure;Samples;Min_cycle;Max_cycle;Signal;HPM_P1;HPM_P2
2022/07/26 00:02:02;;;;;;;;;;;;;;;18.95;57.95;100864.31;1717399;82;27465;-62
2022/07/26 00:04:28;;;;;;;;;;;;;;;18.96;57.54;100861.92;1719976;82;25778;-62
2022/07/26 00:06:55;;;;;;;;;;;;;;;18.97;57.32;100863.08;1715474;82;25834;-62
2022/07/26 00:09:21;;;;;;;;;;;;;;;18.95;59.93;100861.08;1716776;82;25771;-61
2022/07/26 00:11:48;;;;;;;;;;;;;;;18.90;60.54;100861.63;1712045;83;25703;-61
2022/07/26 00:14:15;;;;;;;;;;;;;;;18.84;60.34;100857.44;1716678;82;27573;-60
2022/07/26 00:16:42;;;;;;;;;;;;;;;18.83;60.86;100856.57;1725489;82;25763;-62
2022/07/26 00:19:09;;;;;;;;;;;;;;;18.82;59.73;100856.27;1723137;81;25454;-62
2022/07/26 00:21:36;;;;;;;;;;;;;;;18.82;59.66;100857.63;1721696;81;27883;-62
2022/07/26 00:24:04;;;;;;;;;;;;;;;18.87;59.91;100859.80;1719885;82;25731;-61
2022/07/26 00:26:31;;;;;;;;;;;;;;;18.91;59.39;100854.27;1717055;82;28560;-62
2022/07/26 00:28:58;;;;;;;;;;;;;;;18.96;59.08;100850.48;1721405;82;26115;-62
2022/07/26 00:31:24;;;;;;;;;;;;;;;19.00;58.72;100853.70;1721192;82;26526;-61
2022/07/26 00:33:51;;;;;;;;;;;;;;;19.05;58.63;100847.98;1734326;82;25798;-62
2022/07/26 00:36:17;;;;;;;;;;;;;;;19.10;58.42;100843.84;1744815;81;25512;-62
2022/07/26 00:38:44;;;;;;;;;;;;;;;19.12;58.37;100843.98;1744685;82;27484;-62
2022/07/26 00:41:10;;;;;;;;;;;;;;;19.12;58.04;100842.61;1744702;82;25718;-62
2022/07/26 00:43:37;;;;;;;;;;;;;;;19.14;58.11;100843.28;1744738;82;25735;-62
2022/07/26 00:46:04;;;;;;;;;;;;;;;19.13;57.92;100838.02;1731947;81;26618;-61
2022/07/26 00:48:31;;;;;;;;;;;;;;;19.11;57.80;100842.81;1723978;83;25832;-59
2022/07/26 00:50:58;;;;;;;;;;;;;;;19.10;57.97;100837.03;1727406;82;29541;-59
2022/07/26 00:53:24;;;;;;;;;;;;;;;19.07;57.83;100832.81;1740045;82;25705;-60
2022/07/26 00:55:52;;;;;;;;;;;;;;;19.05;57.98;100834.34;1740053;82;25644;-59
2022/07/26 00:58:18;;;;;;;;;;;;;;;19.00;57.78;100826.44;1740250;81;25808;-60
2022/07/26 01:00:45;;;;;;;;;;;;;;;18.93;57.95;100828.55;1737742;82;25761;-59
2022/07/26 01:03:12;;;;;;;;;;;;;;;18.92;57.99;100830.94;1716428;82;27494;-61
2022/07/26 01:05:39;;;;;;;;;;;;;;;18.89;57.94;100826.36;1714925;83;25627;-61
2022/07/26 01:08:05;;;;;;;;;;;;;;;18.87;58.15;100824.36;1714895;83;25672;-61
2022/07/26 01:10:32;;;;;;;;;;;;;;;18.79;58.42;100823.94;1720022;82;25717;-61
2022/07/26 01:12:59;;;;;;;;;;;;;;;18.73;58.51;100829.62;1740019;82;25782;-61
2022/07/26 01:15:26;;;;;;;;;;;;;;;18.69;58.71;100823.37;1742660;82;27661;-61
2022/07/26 01:17:53;;;;;;;;;;;;;;;18.69;58.73;100820.65;1724763;82;25723;-61
2022/07/26 01:20:19;;;;;;;;;;;;;;;18.67;58.55;100819.48;1725069;81;25786;-61
2022/07/26 01:22:46;;;;;;;;;;;;;;;18.65;58.67;100812.54;1725220;83;25858;-61
2022/07/26 01:25:13;;;;;;;;;;;;;;;18.63;58.73;100810.52;1725075;83;25681;-61
2022/07/26 01:27:40;;;;;;;;;;;;;;;18.60;58.62;100803.57;1725138;81;27480;-61
2022/07/26 01:30:09;;;;;;;;;;;;;;;18.57;58.53;100803.94;1725048;82;25467;-60
2022/07/26 01:32:36;;;;;;;;;;;;;;;18.53;58.72;100803.97;1728629;82;25712;-61
2022/07/26 01:35:05;;;;;;;;;;;;;;;18.50;58.75;100807.92;1725104;81;25962;-61
2022/07/26 01:37:32;;;;;;;;;;;;;;;18.46;59.19;100809.34;1724952;83;25767;-60
2022/07/26 01:39:58;;;;;;;;;;;;;;;18.42;59.11;100803.39;1725342;82;27496;-61
2022/07/26 01:42:25;;;;;;;;;;;;;;;18.39;59.12;100805.16;1725065;83;25704;-61
2022/07/26 01:44:51;;;;;;;;;;;;;;;18.37;59.13;100808.58;1725422;83;25479;-61
2022/07/26 01:47:17;;;;;;;;;;;;;;;18.35;59.09;100805.72;1718889;82;25672;-61
2022/07/26 01:49:44;;;;;;;;;;;;;;;18.34;58.98;100802.13;1727955;82;25750;-61
2022/07/26 01:52:11;;;;;;;;;;;;;;;18.32;59.22;100798.77;1747979;82;27412;-61
2022/07/26 01:54:37;;;;;;;;;;;;;;;18.33;59.03;100800.97;1748007;81;25668;-61
2022/07/26 01:57:05;;;;;;;;;;;;;;;18.30;59.82;100798.11;1748340;81;25692;-60
2022/07/26 01:59:31;;;;;;;;;;;;;;;18.25;59.56;100803.25;1747894;82;25804;-61
2022/07/26 02:01:59;;;;;;;;;;;;;;;18.20;59.33;100801.08;1739845;82;26805;-62
2022/07/26 02:07:12;;;;;;;;;;;;;;;18.09;59.37;100793.39;1747928;81;25501;-61
2022/07/26 02:09:39;;;;;;;;;;;;;;;18.05;59.40;100798.86;1748005;82;25745;-61
2022/07/26 02:12:07;;;;;;;;;;;;;;;18.03;59.39;100799.55;1748246;82;25818;-62
2022/07/26 02:14:33;;;;;;;;;;;;;;;18.00;59.21;100789.89;1748451;81;25657;-60
2022/07/26 02:17:01;;;;;;;;;;;;;;;17.97;59.49;100792.47;1718081;81;27702;-61
2022/07/26 02:19:30;;;;;;;;;;;;;;;17.91;59.33;100794.55;1709244;84;25760;-60
2022/07/26 02:21:58;;;;;;;;;;;;;;;17.90;59.54;100792.85;1709362;82;25686;-61
2022/07/26 02:24:30;;;;;;;;;;;;;;;17.89;59.50;100794.38;1709290;84;25832;-61
2022/07/26 02:26:56;;;;;;;;;;;;;;;17.87;59.72;100796.45;1708705;82;26114;-61
2022/07/26 02:29:23;;;;;;;;;;;;;;;17.83;59.90;100801.42;1708666;83;26811;-61
2022/07/26 02:31:49;;;;;;;;;;;;;;;17.81;59.71;100803.48;1714352;82;26389;-61
2022/07/26 02:34:17;;;;;;;;;;;;;;;17.78;59.66;100799.25;1716755;83;25717;-61
2022/07/26 02:36:43;;;;;;;;;;;;;;;17.74;60.82;100797.91;1716828;83;26634;-61
2022/07/26 02:39:11;;;;;;;;;;;;;;;17.65;61.53;100799.01;1717055;82;25750;-61
2022/07/26 02:41:38;;;;;;;;;;;;;;;17.57;61.23;100797.19;1716155;82;27482;-61
2022/07/26 02:44:06;;;;;;;;;;;;;;;17.55;61.03;100802.48;1716459;82;26260;-61
2022/07/26 02:46:33;;;;;;;;;;;;;;;17.53;61.22;100798.06;1703820;83;25729;-61
2022/07/26 02:48:59;;;;;;;;;;;;;;;17.50;61.09;100798.45;1708203;84;25816;-61
2022/07/26 02:51:27;;;;;;;;;;;;;;;17.47;60.99;100794.72;1713677;83;25820;-61
2022/07/26 02:53:54;;;;;;;;;;;;;;;17.47;61.22;100794.72;1717121;82;28254;-60
2022/07/26 02:56:20;;;;;;;;;;;;;;;17.46;61.32;100794.91;1717009;83;25793;-60
2022/07/26 02:58:47;;;;;;;;;;;;;;;17.45;61.13;100804.93;1715309;82;25417;-60
2022/07/26 03:01:13;;;;;;;;;;;;;;;17.44;61.26;100807.31;1712283;82;25965;-60
2022/07/26 03:03:40;;;;;;;;;;;;;;;17.45;61.46;100804.93;1709705;83;25993;-60
2022/07/26 03:06:07;;;;;;;;;;;;;;;17.44;61.38;100804.59;1709578;84;27650;-61
2022/07/26 03:08:33;;;;;;;;;;;;;;;17.48;61.49;100805.11;1709237;82;25972;-61
2022/07/26 03:11:00;;;;;;;;;;;;;;;17.49;61.48;100802.19;1709405;84;25770;-61
2022/07/26 03:13:26;;;;;;;;;;;;;;;17.48;61.22;100800.50;1709362;83;26579;-61
2022/07/26 03:15:53;;;;;;;;;;;;;;;17.48;61.48;100795.59;1704519;82;25449;-61
2022/07/26 03:18:19;;;;;;;;;;;;;;;17.50;61.67;100790.78;1706907;84;27507;-61
2022/07/26 03:20:47;;;;;;;;;;;;;;;17.45;61.52;100794.05;1709820;82;27214;-61
2022/07/26 03:23:13;;;;;;;;;;;;;;;17.43;61.76;100798.84;1714876;82;25763;-61
2022/07/26 03:25:40;;;;;;;;;;;;;;;17.46;61.69;100794.91;1714795;83;25799;-61
2022/07/26 03:28:07;;;;;;;;;;;;;;;17.47;61.41;100786.56;1714823;83;25673;-63
2022/07/26 03:30:34;;;;;;;;;;;;;;;17.49;62.06;100796.75;1716228;82;27478;-60
2022/07/26 03:33:01;;;;;;;;;;;;;;;17.46;61.89;100790.84;1715348;82;25741;-60
2022/07/26 03:35:27;;;;;;;;;;;;;;;17.46;61.77;100795.75;1706671;84;25721;-60
2022/07/26 03:37:54;;;;;;;;;;;;;;;17.46;61.55;100794.39;1706849;82;27893;-60
2022/07/26 03:40:20;;;;;;;;;;;;;;;17.50;61.52;100793.51;1709397;82;25714;-60
2022/07/26 03:42:47;;;;;;;;;;;;;;;17.52;61.40;100799.13;1714940;83;27572;-60
2022/07/26 03:45:14;;;;;;;;;;;;;;;17.55;61.43;100796.55;1714661;83;25915;-61
2022/07/26 03:47:41;;;;;;;;;;;;;;;17.60;61.36;100799.55;1714931;83;25775;-61
2022/07/26 03:50:10;;;;;;;;;;;;;;;17.64;62.05;100799.53;1714887;83;26507;-61
2022/07/26 03:52:36;;;;;;;;;;;;;;;17.56;62.59;100791.94;1714990;83;25927;-61
2022/07/26 03:56:27;;;;;;;;;;;;;;;17.52;62.10;100788.24;1714662;83;27538;-61
2022/07/26 03:57:33;;;;;;;;;;;;;;;17.58;62.12;100788.00;1686425;84;25748;-61
2022/07/26 03:59:59;;;;;;;;;;;;;;;17.66;61.85;100787.10;1687347;82;25757;-61
2022/07/26 04:02:26;;;;;;;;;;;;;;;17.67;62.10;100777.39;1714631;83;26270;-61
2022/07/26 04:04:53;;;;;;;;;;;;;;;17.68;61.90;100787.77;1715087;82;25685;-61
2022/07/26 04:07:20;;;;;;;;;;;;;;;17.74;61.73;100784.31;1714803;83;27485;-61
2022/07/26 04:09:46;;;;;;;;;;;;;;;17.79;61.61;100786.48;1731815;82;25680;-60
2022/07/26 04:12:12;;;;;;;;;;;;;;;17.81;61.26;100787.15;1739877;82;25635;-60
2022/07/26 04:14:41;;;;;;;;;;;;;;;17.86;61.14;100779.80;1716673;82;25807;-61
2022/07/26 04:17:07;;;;;;;;;;;;;;;17.91;61.05;100785.02;1710610;82;26434;-61
2022/07/26 04:19:34;;;;;;;;;;;;;;;17.97;61.03;100790.28;1706772;82;27494;-60
2022/07/26 04:22:01;;;;;;;;;;;;;;;17.99;60.68;100780.89;1736549;81;26391;-60
2022/07/26 04:24:28;;;;;;;;;;;;;;;18.03;60.76;100786.81;1740081;82;25761;-60
2022/07/26 04:26:54;;;;;;;;;;;;;;;18.09;60.39;100785.22;1740169;82;25815;-60
2022/07/26 04:29:21;;;;;;;;;;;;;;;18.14;60.72;100783.64;1739979;81;27363;-61
2022/07/26 04:31:47;;;;;;;;;;;;;;;18.20;60.66;100777.94;1735016;82;27486;-60
2022/07/26 04:34:14;;;;;;;;;;;;;;;18.28;60.70;100783.83;1714488;82;25951;-60
2022/07/26 04:36:40;;;;;;;;;;;;;;;18.35;60.61;100783.93;1714785;82;25713;-60
2022/07/26 04:39:07;;;;;;;;;;;;;;;18.42;60.47;100787.05;1714741;83;25795;-60
2022/07/26 04:41:33;;;;;;;;;;;;;;;18.48;60.31;100784.63;1714993;83;25557;-60
2022/07/26 04:44:00;;;;;;;;;;;;;;;18.50;58.63;100785.30;1714927;83;28452;-60
2022/07/26 04:46:26;;;;;;;;;;;;;;;18.53;58.50;100791.21;1714326;82;25714;-60
2022/07/26 04:48:53;;;;;;;;;;;;;;;18.58;58.28;100794.20;1706914;84;25516;-61
2022/07/26 04:51:20;;;;;;;;;;;;;;;18.60;57.77;100786.69;1714509;83;25821;-60
2022/07/26 04:53:47;;;;;;;;;;;;;;;18.68;57.73;100791.20;1714796;82;27360;-61
2022/07/26 04:56:13;;;;;;;;;;;;;;;18.74;57.61;100777.31;1715029;83;27490;-61
2022/07/26 04:58:40;;;;;;;;;;;;;;;18.80;57.49;100777.08;1720532;82;25753;-60
2022/07/26 05:01:06;;;;;;;;;;;;;;;18.87;57.43;100767.12;1727384;82;25758;-61
2022/07/26 05:03:33;;;;;;;;;;;;;;;18.93;57.25;100771.30;1714966;83;26399;-61
2022/07/26 05:06:00;;;;;;;;;;;;;;;19.02;57.21;100769.32;1713900;83;25993;-61
2022/07/26 05:08:26;;;;;;;;;;;;;;;19.10;56.79;100775.69;1706515;84;27488;-60
2022/07/26 05:10:55;;;;;;;;;;;;;;;19.19;56.64;100775.36;1723368;82;44092;-61
2022/07/26 05:13:22;;;;;;;;;;;;;;;19.27;56.37;100775.77;1740014;82;25745;-61
2022/07/26 05:15:49;;;;;;;;;;;;;;;19.35;56.47;100772.91;1718206;82;26042;-61
2022/07/26 05:18:16;;;;;;;;;;;;;;;19.41;56.41;100771.30;1728310;81;27330;-60
2022/07/26 05:20:42;;;;;;;;;;;;;;;19.49;56.38;100766.23;1732845;81;27484;-60
2022/07/26 05:23:10;;;;;;;;;;;;;;;19.55;56.22;100759.45;1737731;81;25766;-61
2022/07/26 05:25:37;;;;;;;;;;;;;;;19.62;56.17;100759.52;1728285;82;25760;-60
2022/07/26 05:28:04;;;;;;;;;;;;;;;19.68;55.59;100760.62;1730857;81;25854;-61
2022/07/26 05:30:31;;;;;;;;;;;;;;;19.73;55.23;100764.12;1740389;81;25790;-60
2022/07/26 05:32:57;;;;;;;;;;;;;;;19.77;54.96;100761.31;1727232;81;27479;-61
2022/07/26 05:35:24;;;;;;;;;;;;;;;19.83;54.75;100765.47;1731291;81;25848;-61
2022/07/26 05:37:51;;;;;;;;;;;;;;;19.89;54.22;100761.14;1733105;81;25768;-61
2022/07/26 05:40:20;;;;;;;;;;;;;;;19.95;53.97;100762.23;1725373;82;26720;-61
2022/07/26 05:42:47;;;;;;;;;;;;;;;20.04;53.70;100758.31;1729292;81;26338;-61
2022/07/26 05:45:17;;;;;;;;;;;;;;;20.11;53.66;100751.00;1719293;82;27482;-60
2022/07/26 05:47:44;;;;;;;;;;;;;;;20.18;53.28;100756.52;1736146;81;25770;-61
2022/07/26 05:50:11;;;;;;;;;;;;;;;20.26;53.09;100752.80;1735190;81;25489;-61
2022/07/26 05:52:37;;;;;;;;;;;;;;;20.35;53.22;100753.45;1733453;81;25840;-61
2022/07/26 05:55:05;;;;;;;;;;;;;;;20.42;53.16;100745.63;1733670;81;27232;-60
2022/07/26 05:57:32;;;;;;;;;;;;;;;20.50;53.20;100745.97;1726946;82;27641;-60
2022/07/26 05:59:58;;;;;;;;;;;;;;;20.56;52.91;100746.55;1729012;81;25707;-60
2022/07/26 06:02:25;;;;;;;;;;;;;;;20.63;52.97;100742.45;1734229;81;25758;-61
2022/07/26 06:04:51;;;;;;;;;;;;;;;20.70;52.46;100743.85;1728644;81;25933;-60
2022/07/26 06:07:18;;;;;;;;;;;;;;;20.76;52.40;100742.55;1733142;81;25727;-60
2022/07/26 06:09:44;;;;;;;;;;;;;;;20.84;52.47;100740.17;1734061;81;26892;-59
2022/07/26 06:12:11;;;;;;;;;;;;;;;20.92;52.46;100743.23;1731002;81;25803;-60
2022/07/26 06:14:37;;;;;;;;;;;;;;;21.00;51.92;100740.84;1724341;83;25519;-60
2022/07/26 06:17:04;;;;;;;;;;;;;;;21.07;51.67;100733.48;1727811;81;25887;-60
2022/07/26 06:19:31;;;;;;;;;;;;;;;21.15;51.82;100733.30;1711523;83;25801;-60
2022/07/26 06:21:58;;;;;;;;;;;;;;;21.25;50.49;100728.77;1719470;82;27644;-60
2022/07/26 06:24:25;;;;;;;;;;;;;;;21.36;49.79;100719.13;1747275;82;25725;-61
2022/07/26 06:26:54;;;;;;;;;;;;;;;21.45;49.69;100723.86;1750378;82;25823;-61
2022/07/26 06:29:21;;;;;;;;;;;;;;;21.53;49.87;100719.54;1736341;82;26625;-60
2022/07/26 06:31:48;;;;;;;;;;;;;;;21.62;49.67;100721.59;1730184;82;25453;-60
2022/07/26 06:34:15;;;;;;;;;;;;;;;21.72;49.06;100716.53;1741534;82;27488;-60
2022/07/26 06:36:42;;;;;;;;;;;;;;;21.81;48.82;100722.62;1720341;83;25898;-61
2022/07/26 06:39:08;;;;;;;;;;;;;;;21.90;48.29;100718.61;1719070;82;25849;-60
2022/07/26 06:41:35;;;;;;;;;;;;;;;21.99;47.98;100713.77;1727116;82;25798;-60
2022/07/26 06:44:01;;;;;;;;;;;;;;;22.09;47.87;100713.31;1720830;82;25996;-58
2022/07/26 06:46:27;;;;;;;;;;;;;;;22.17;47.75;100707.59;1730789;82;27488;-61
2022/07/26 06:48:54;;;;;;;;;;;;;;;22.27;47.96;100708.53;1714736;83;25685;-61
2022/07/26 06:51:21;;;;;;;;;;;;;;;22.36;46.89;100702.59;1744299;82;25669;-61
2022/07/26 06:53:48;;;;;;;;;;;;;;;22.44;47.00;100700.17;1718960;83;25793;-61
2022/07/26 06:56:16;;;;;;;;;;;;;;;22.53;47.22;100697.19;1718866;82;25730;-61
2022/07/26 06:58:43;;;;;;;;;;;;;;;22.61;47.27;100695.02;1721464;82;27490;-61
2022/07/26 07:01:10;;;;;;;;;;;;;;;22.73;47.34;100691.60;1723402;82;26530;-60
2022/07/26 07:03:37;;;;;;;;;;;;;;;22.86;46.93;100693.43;1750689;81;25726;-59
2022/07/26 07:06:03;;;;;;;;;;;;;;;22.95;46.68;100689.37;1747352;81;26839;-60
2022/07/26 07:08:30;;;;;;;;;;;;;;;23.07;45.44;100691.73;1719088;83;25756;-60
2022/07/26 07:10:57;;;;;;;;;;;;;;;23.17;45.17;100690.40;1721400;82;27507;-60
2022/07/26 07:13:23;;;;;;;;;;;;;;;23.25;45.19;100689.61;1723961;82;25717;-59
2022/07/26 07:15:50;;;;;;;;;;;;;;;23.39;44.15;100686.23;1720422;82;26447;-60
2022/07/26 07:18:17;;;;;;;;;;;;;;;23.53;43.57;100687.51;1695650;82;25832;-60
2022/07/26 07:20:43;;;;;;;;;;;;;;;23.64;43.23;100684.55;1699833;83;25781;-60
2022/07/26 07:23:10;;;;;;;;;;;;;;;23.75;42.52;100683.81;1714808;83;27489;-60
2022/07/26 07:25:36;;;;;;;;;;;;;;;23.81;42.77;100680.16;1714773;83;25701;-60
2022/07/26 07:28:04;;;;;;;;;;;;;;;23.91;42.90;100674.13;1702957;82;26007;-60
2022/07/26 07:30:30;;;;;;;;;;;;;;;23.99;43.12;100675.23;1704564;83;26517;-59
2022/07/26 07:32:57;;;;;;;;;;;;;;;24.05;42.27;100677.09;1706796;82;25767;-60
2022/07/26 07:35:24;;;;;;;;;;;;;;;24.13;41.44;100679.22;1698840;84;27479;-60
2022/07/26 07:37:50;;;;;;;;;;;;;;;24.16;41.67;100670.53;1711687;83;25804;-60
2022/07/26 07:40:17;;;;;;;;;;;;;;;24.24;41.84;100672.97;1714746;83;25782;-60
2022/07/26 07:42:43;;;;;;;;;;;;;;;24.33;41.57;100679.84;1711981;82;25776;-60
2022/07/26 07:45:10;;;;;;;;;;;;;;;24.44;41.15;100681.48;1708999;83;25788;-60
2022/07/26 07:47:37;;;;;;;;;;;;;;;24.49;41.38;100683.02;1707494;83;27518;-60
2022/07/26 07:50:05;;;;;;;;;;;;;;;24.55;41.45;100675.20;1707552;83;25805;-60
2022/07/26 07:52:32;;;;;;;;;;;;;;;24.62;41.78;100673.20;1705833;83;25519;-60
2022/07/26 07:54:58;;;;;;;;;;;;;;;24.70;40.94;100676.21;1710218;83;26758;-59
2022/07/26 07:57:25;;;;;;;;;;;;;;;24.77;40.95;100673.38;1710962;83;25728;-60
2022/07/26 07:59:51;;;;;;;;;;;;;;;24.84;40.73;100673.56;1689532;83;27547;-60
2022/07/26 08:02:17;;;;;;;;;;;;;;;24.95;40.26;100669.71;1716275;83;25931;-60
2022/07/26 08:04:44;;;;;;;;;;;;;;;25.10;40.98;100670.10;1711008;83;25722;-58
2022/07/26 08:07:11;;;;;;;;;;;;;;;25.22;40.95;100663.80;1717525;82;25762;-60
2022/07/26 08:09:37;;;;;;;;;;;;;;;25.38;40.82;100665.02;1719583;83;27263;-60
2022/07/26 08:12:05;;;;;;;;;;;;;;;25.51;40.38;100666.19;1716473;83;27709;-60
2022/07/26 08:14:31;;;;;;;;;;;;;;;25.64;40.67;100659.60;1715122;82;25469;-60
2022/07/26 08:16:58;;;;;;;;;;;;;;;25.78;39.99;100657.44;1710603;83;25681;-60
2022/07/26 08:19:25;;;;;;;;;;;;;;;25.88;39.85;100654.92;1714560;83;25956;-60
2022/07/26 08:21:51;;;;;;;;;;;;;;;25.99;39.69;100656.53;1717652;82;25689;-60
2022/07/26 08:24:18;;;;;;;;;;;;;;;26.09;39.14;100657.61;1714334;82;27512;-60
2022/07/26 08:26:45;;;;;;;;;;;;;;;26.18;38.26;100653.09;1712431;82;25844;-60
2022/07/26 08:29:11;;;;;;;;;;;;;;;26.29;38.07;100646.72;1714701;83;25684;-60
2022/07/26 08:31:38;;;;;;;;;;;;;;;26.37;38.04;100645.51;1714848;83;27902;-61
2022/07/26 08:34:04;;;;;;;;;;;;;;;26.49;36.83;100647.66;1714697;83;25694;-60
2022/07/26 08:36:31;;;;;;;;;;;;;;;26.61;36.83;100655.92;1716866;82;27475;-60
2022/07/26 08:38:58;;;;;;;;;;;;;;;26.65;36.13;100650.74;1717142;82;25755;-60
2022/07/26 08:41:24;;;;;;;;;;;;;;;26.66;35.95;100652.42;1726192;81;25760;-60
2022/07/26 08:43:51;;;;;;;;;;;;;;;26.67;36.52;100648.02;1715069;83;25816;-60
2022/07/26 08:46:17;;;;;;;;;;;;;;;26.75;36.22;100641.28;1714127;82;26275;-60
2022/07/26 08:48:45;;;;;;;;;;;;;;;26.86;35.88;100640.39;1716719;82;27443;-60
2022/07/26 08:51:12;;;;;;;;;;;;;;;27.03;36.45;100642.33;1734347;82;25992;-60
2022/07/26 08:53:39;;;;;;;;;;;;;;;27.17;35.60;100642.84;1708861;82;25889;-60
2022/07/26 08:56:06;;;;;;;;;;;;;;;27.31;35.67;100638.67;1715313;82;25784;-60
2022/07/26 08:58:35;;;;;;;;;;;;;;;27.45;35.67;100638.34;1714972;82;25897;-60
2022/07/26 09:01:07;;;;;;;;;;;;;;;27.63;34.26;100637.25;1721058;82;27616;-60
2022/07/26 09:03:37;;;;;;;;;;;;;;;27.78;34.55;100636.08;1710783;82;25704;-60
2022/07/26 09:06:19;;;;;;;;;;;;;;;27.94;33.62;100634.38;1714284;82;25801;-61
2022/07/26 09:08:50;;;;;;;;;;;;;;;28.07;34.07;100641.48;1706724;84;25872;-61
2022/07/26 09:11:29;;;;;;;;;;;;;;;28.11;32.99;100638.48;1706840;82;25729;-61
2022/07/26 09:14:01;;;;;;;;;;;;;;;28.22;32.63;100635.84;1706564;82;27769;-62
2022/07/26 09:16:29;;;;;;;;;;;;;;;28.38;33.24;100637.69;1706593;84;25706;-61
2022/07/26 09:18:57;;;;;;;;;;;;;;;28.66;32.80;100629.43;1714937;83;25849;-60
2022/07/26 09:21:29;;;;;;;;;;;;;;;28.89;32.50;100629.12;1720276;83;25931;-63
2022/07/26 09:23:57;;;;;;;;;;;;;;;29.15;32.83;100621.03;1728173;83;25736;-62
2022/07/26 09:26:23;;;;;;;;;;;;;;;29.49;32.81;100621.31;1727896;83;27568;-61
2022/07/26 09:29:00;;;;;;;;;;;;;;;29.84;30.57;100618.47;1728085;82;25632;-62
2022/07/26 09:31:27;;;;;;;;;;;;;;;30.16;30.84;100612.00;1738015;81;25720;-62
2022/07/26 09:33:53;;;;;;;;;;;;;;;30.55;30.38;100612.13;1744278;81;26509;-62
2022/07/26 09:36:20;;;;;;;;;;;;;;;31.00;29.72;100611.05;1740389;81;25789;-62
2022/07/26 09:38:53;;;;;;;;;;;;;;;31.37;29.70;100609.95;1742888;81;28147;-62
2022/07/26 09:41:31;;;;;;;;;;;;;;;31.76;27.82;100609.34;1738145;81;25882;-62
2022/07/26 09:44:06;;;;;;;;;;;;;;;31.99;28.33;100611.19;1729359;81;25757;-62
2022/07/26 09:46:35;;;;;;;;;;;;;;;32.42;28.11;100607.38;1697214;82;25848;-62
2022/07/26 09:49:18;;;;;;;;;;;;;;;32.69;27.17;100603.31;1740458;81;25711;-62
2022/07/26 09:51:48;;;;;;;;;;;;;;;33.00;27.92;100601.72;1738321;81;27459;-62
2022/07/26 09:54:30;;;;;;;;;;;;;;;33.39;26.50;100600.83;1741894;81;25802;-62
2022/07/26 09:56:57;;;;;;;;;;;;;;;33.63;25.05;100600.01;1744207;81;25677;-59
2022/07/26 09:59:25;;;;;;;;;;;;;;;33.70;25.34;100597.69;1744348;81;25684;-62
2022/07/26 10:01:53;;;;;;;;;;;;;;;34.00;26.03;100598.48;1738928;81;25766;-63
2022/07/26 10:04:20;;;;;;;;;;;;;;;34.36;25.50;100597.72;1742622;81;28365;-62
2022/07/26 10:06:48;;;;;;;;;;;;;;;34.73;24.87;100594.69;1740471;81;25772;-62
2022/07/26 10:09:15;;;;;;;;;;;;;;;35.01;24.62;100592.02;1743787;81;25848;-62
2022/07/26 10:11:54;;;;;;;;;;;;;;;35.24;24.32;100591.58;1741328;81;25876;-62
2022/07/26 10:14:35;;;;;;;;;;;;;;;35.33;23.95;100594.52;1741379;81;25705;-62
2022/07/26 10:17:21;;;;;;;;;;;;;;;35.67;24.13;100589.13;1744243;81;27479;-62
2022/07/26 10:19:48;;;;;;;;;;;;;;;36.23;22.81;100587.11;1724112;81;25744;-62
2022/07/26 10:22:36;;;;;;;;;;;;;;;36.74;22.26;100579.50;1720773;81;25694;-63
2022/07/26 10:25:22;;;;;;;;;;;;;;;37.27;22.68;100571.43;1715879;82;26805;-63
2022/07/26 10:27:56;;;;;;;;;;;;;;;37.77;21.08;100577.94;1718891;82;25795;-60
2022/07/26 10:30:25;;;;;;;;;;;;;;;37.77;21.22;100572.33;1673342;83;28269;-62
2022/07/26 10:33:04;;;;;;;;;;;;;;;38.04;21.31;100572.65;1671804;85;25778;-62
2022/07/26 10:35:42;;;;;;;;;;;;;;;38.32;20.50;100572.34;1694819;82;25531;-62
2022/07/26 10:38:12;;;;;;;;;;;;;;;38.70;20.50;100569.45;1711432;83;25801;-62
2022/07/26 10:40:57;;;;;;;;;;;;;;;39.08;19.12;100570.16;1720335;83;25751;-62
2022/07/26 10:43:25;;;;;;;;;;;;;;;39.33;19.58;100564.80;1718267;83;27511;-62
2022/07/26 10:46:18;;;;;;;;;;;;;;;39.87;19.93;100567.87;1698331;83;25761;-61
2022/07/26 10:49:05;;;;;;;;;;;;;;;40.10;18.99;100565.31;1714805;83;25723;-62
2022/07/26 10:51:37;;;;;;;;;;;;;;;40.32;18.34;100563.61;1695767;83;25810;-62
2022/07/26 10:54:08;;;;;;;;;;;;;;;40.60;18.16;100557.42;1720315;83;25888;-62
2022/07/26 10:56:35;;;;;;;;;;;;;;;40.99;18.69;100554.36;1720959;82;27680;-63
2022/07/26 10:59:03;;;;;;;;;;;;;;;41.17;18.00;100551.36;1715084;82;25749;-63
2022/07/26 11:01:37;;;;;;;;;;;;;;;41.44;17.85;100554.08;1715166;83;25842;-62
2022/07/26 11:04:06;;;;;;;;;;;;;;;41.51;17.09;100547.88;1714881;83;26557;-61
2022/07/26 11:06:32;;;;;;;;;;;;;;;41.48;16.73;100553.65;1715315;83;25835;-62
2022/07/26 11:09:02;;;;;;;;;;;;;;;41.73;16.83;100555.04;1720068;83;26955;-62
2022/07/26 11:11:31;;;;;;;;;;;;;;;41.84;16.78;100541.25;1719271;83;25572;-62
2022/07/26 11:14:05;;;;;;;;;;;;;;;42.10;15.68;100545.69;1720321;83;25532;-62
2022/07/26 11:16:40;;;;;;;;;;;;;;;41.96;16.75;100537.03;1720787;82;26314;-62
2022/07/26 11:19:28;;;;;;;;;;;;;;;42.26;16.76;100528.81;1727795;82;26031;-62
2022/07/26 11:21:58;;;;;;;;;;;;;;;42.52;16.05;100522.73;1734435;82;27721;-62
2022/07/26 11:24:25;;;;;;;;;;;;;;;43.06;15.51;100516.31;1710186;82;25768;-63
2022/07/26 11:26:53;;;;;;;;;;;;;;;43.28;15.40;100519.92;1698019;84;25784;-62
2022/07/26 11:29:27;;;;;;;;;;;;;;;43.50;15.03;100513.95;1698454;84;25926;-62
2022/07/26 11:31:53;;;;;;;;;;;;;;;43.82;14.56;100510.47;1715384;82;25773;-63
2022/07/26 11:34:24;;;;;;;;;;;;;;;44.01;14.69;100511.72;1716346;82;27505;-63
2022/07/26 11:36:54;;;;;;;;;;;;;;;43.91;13.71;100523.02;1716635;82;25761;-63
2022/07/26 11:39:30;;;;;;;;;;;;;;;43.61;13.57;100512.23;1698336;84;25773;-63
2022/07/26 11:42:00;;;;;;;;;;;;;;;43.52;14.40;100512.42;1698089;83;25977;-63
2022/07/26 11:44:27;;;;;;;;;;;;;;;43.23;13.90;100499.56;1697213;84;25717;-62
2022/07/26 11:46:54;;;;;;;;;;;;;;;43.45;14.41;100496.65;1706254;84;28379;-63
2022/07/26 11:49:23;;;;;;;;;;;;;;;43.59;14.39;100489.95;1709668;84;25704;-63
2022/07/26 11:51:56;;;;;;;;;;;;;;;43.90;14.65;100487.38;1714499;82;25743;-63
2022/07/26 11:54:24;;;;;;;;;;;;;;;44.28;14.41;100482.09;1737841;82;26660;-63
2022/07/26 11:57:02;;;;;;;;;;;;;;;44.63;13.40;100481.17;1723019;82;26101;-63
2022/07/26 11:59:32;;;;;;;;;;;;;;;44.94;13.52;100472.23;1698220;83;27472;-63
2022/07/26 12:02:00;;;;;;;;;;;;;;;45.45;13.47;100468.19;1698386;83;25793;-63
2022/07/26 12:04:31;;;;;;;;;;;;;;;45.77;12.97;100448.75;1698871;82;25507;-63
2022/07/26 12:07:00;;;;;;;;;;;;;;;45.90;12.62;100454.20;1702065;82;25886;-63
2022/07/26 12:09:29;;;;;;;;;;;;;;;45.85;12.94;100443.19;1668405;85;25771;-63
2022/07/26 12:11:56;;;;;;;;;;;;;;;46.11;12.31;100446.55;1724239;81;27575;-63
2022/07/26 12:14:27;;;;;;;;;;;;;;;46.67;12.64;100437.59;1723692;82;27305;-63
2022/07/26 12:16:54;;;;;;;;;;;;;;;46.75;11.72;100439.94;1726074;81;25721;-63
2022/07/26 12:19:24;;;;;;;;;;;;;;;46.68;11.62;100433.53;1717498;82;26759;-63
2022/07/26 12:21:57;;;;;;;;;;;;;;;46.67;11.96;100430.48;1711755;83;25785;-63
2022/07/26 12:24:36;;;;;;;;;;;;;;;46.59;11.23;100427.36;1718257;82;28521;-63
2022/07/26 12:27:06;;;;;;;;;;;;;;;46.63;12.19;100419.69;1718997;82;26553;-63
2022/07/26 12:29:36;;;;;;;;;;;;;;;47.05;11.93;100421.05;1718890;81;25819;-63
2022/07/26 12:32:08;;;;;;;;;;;;;;;47.45;11.73;100419.30;1713662;82;26658;-62
2022/07/26 12:34:36;;;;;;;;;;;;;;;47.83;10.74;100414.80;1717490;81;25851;-63
2022/07/26 12:37:09;;;;;;;;;;;;;;;48.09;11.37;100408.79;1716831;82;27419;-63
2022/07/26 12:39:35;;;;;;;;;;;;;;;48.34;11.67;100410.89;1715866;82;25792;-63
2022/07/26 12:42:22;;;;;;;;;;;;;;;48.35;11.11;100403.97;1718084;82;25802;-63
2022/07/26 12:44:49;;;;;;;;;;;;;;;48.52;10.85;100398.08;1725910;82;26005;-63